createdAt,value
2022-11-12T00:00:28.894Z,97442.47
2022-11-12T00:03:14.582Z,97439.56
2022-11-12T00:06:00.246Z,97436.03
2022-11-12T00:08:45.924Z,97446.13
2022-11-12T00:11:31.752Z,97448.09
2022-11-12T00:14:17.361Z,97453.19
2022-11-12T00:17:03.058Z,97442.28
2022-11-12T00:19:49.151Z,97429.00
2022-11-12T00:22:35.174Z,97436.84
2022-11-12T00:25:21.087Z,97437.81
2022-11-12T00:28:09.675Z,97436.38
2022-11-12T00:30:55.485Z,97431.22
2022-11-12T00:33:43.005Z,97436.50
2022-11-12T00:36:28.860Z,97439.38
2022-11-12T00:39:14.555Z,97447.69
2022-11-12T00:42:00.535Z,97444.22
2022-11-12T00:44:45.965Z,97449.97
2022-11-12T00:47:31.535Z,97452.34
2022-11-12T00:50:17.414Z,97446.44
2022-11-12T00:53:03.381Z,97441.31
2022-11-12T00:55:48.943Z,97449.34
2022-11-12T00:58:36.076Z,97452.22
2022-11-12T01:01:21.878Z,97450.47
2022-11-12T01:04:07.592Z,97454.81
2022-11-12T01:06:53.576Z,97457.03
2022-11-12T01:09:39.194Z,97448.84
2022-11-12T01:12:25.021Z,97460.09
2022-11-12T01:15:10.850Z,97460.59
2022-11-12T01:17:56.663Z,97455.13
2022-11-12T01:20:42.323Z,97455.91
2022-11-12T01:23:28.332Z,97446.78
2022-11-12T01:26:17.136Z,97450.78
2022-11-12T01:29:03.112Z,97445.81
2022-11-12T01:31:48.779Z,97443.09
2022-11-12T01:34:34.522Z,97429.28
2022-11-12T01:37:20.183Z,97440.53
2022-11-12T01:40:06.640Z,97431.88
2022-11-12T01:42:53.652Z,97429.31
2022-11-12T01:45:45.771Z,97424.97
2022-11-12T01:48:53.201Z,97424.47
2022-11-12T01:51:44.347Z,97422.56
2022-11-12T01:54:30.950Z,97424.94
2022-11-12T01:57:23.687Z,97422.72
2022-11-12T02:00:12.461Z,97424.47
2022-11-12T02:03:00.631Z,97423.69
2022-11-12T02:05:49.724Z,97426.28
2022-11-12T02:08:35.723Z,97422.56
2022-11-12T02:11:21.812Z,97425.91
2022-11-12T02:14:07.694Z,97419.66
2022-11-12T02:16:53.373Z,97413.41
2022-11-12T02:19:39.000Z,97410.56
2022-11-12T02:22:24.898Z,97409.91
2022-11-12T02:25:18.935Z,97414.31
2022-11-12T02:28:06.969Z,97402.50
2022-11-12T02:30:52.448Z,97403.00
2022-11-12T02:33:38.066Z,97388.63
2022-11-12T02:36:24.174Z,97402.88
2022-11-12T02:39:09.858Z,97401.09
2022-11-12T02:41:55.576Z,97404.47
2022-11-12T02:44:41.481Z,97412.66
2022-11-12T02:47:27.382Z,97408.16
2022-11-12T02:50:13.243Z,97409.56
2022-11-12T02:52:58.969Z,97404.44
2022-11-12T02:55:44.783Z,97402.03
2022-11-12T02:58:31.011Z,97398.97
2022-11-12T03:01:16.794Z,97391.59
2022-11-12T03:04:02.622Z,97400.91
2022-11-12T03:06:48.333Z,97394.63
2022-11-12T03:09:34.601Z,97393.19
2022-11-12T03:12:20.021Z,97386.00
2022-11-12T03:15:06.090Z,97386.78
2022-11-12T03:17:51.556Z,97387.75
2022-11-12T03:20:37.338Z,97381.22
2022-11-12T03:23:23.333Z,97374.81
2022-11-12T03:26:09.050Z,97372.53
2022-11-12T03:28:54.890Z,97375.59
2022-11-12T03:31:41.831Z,97377.22
2022-11-12T03:34:27.390Z,97373.38
2022-11-12T03:37:12.961Z,97368.56
2022-11-12T03:39:58.588Z,97374.63
2022-11-12T03:42:49.604Z,97372.41
2022-11-12T03:45:35.022Z,97368.88
2022-11-12T03:48:20.492Z,97377.53
2022-11-12T03:51:06.279Z,97366.31
2022-11-12T03:53:52.080Z,97371.91
2022-11-12T03:56:37.765Z,97380.38
2022-11-12T03:59:23.555Z,97369.66
2022-11-12T04:02:14.299Z,97367.91
2022-11-12T04:05:38.794Z,97369.47
2022-11-12T04:08:37.238Z,97364.88
2022-11-12T04:11:23.108Z,97366.97
2022-11-12T04:14:08.837Z,97374.00
2022-11-12T04:17:12.831Z,97362.44
2022-11-12T04:20:17.295Z,97363.72
2022-11-12T04:23:03.379Z,97358.44
2022-11-12T04:26:07.541Z,97366.78
2022-11-12T04:29:11.781Z,97362.44
2022-11-12T04:31:57.477Z,97357.66
2022-11-12T04:34:43.620Z,97356.50
2022-11-12T04:37:44.133Z,97356.03
2022-11-12T04:40:48.455Z,97358.13
2022-11-12T04:43:52.851Z,97360.19
2022-11-12T04:46:38.553Z,97359.09
2022-11-12T04:49:24.287Z,97357.31
2022-11-12T04:52:10.645Z,97354.41
2022-11-12T04:54:57.136Z,97357.66
2022-11-12T04:57:42.836Z,97344.81
2022-11-12T05:00:28.902Z,97335.66
2022-11-12T05:03:14.413Z,97339.72
2022-11-12T05:06:25.268Z,97342.88
2022-11-12T05:09:10.740Z,97341.41
2022-11-12T05:11:57.387Z,97335.19
2022-11-12T05:14:43.006Z,97340.66
2022-11-12T05:17:28.923Z,97335.16
2022-11-12T05:20:15.256Z,97341.28
2022-11-12T05:23:08.223Z,97335.50
2022-11-12T05:25:53.616Z,97340.31
2022-11-12T05:28:39.276Z,97335.34
2022-11-12T05:31:25.102Z,97342.06
2022-11-12T05:34:11.402Z,97341.41
2022-11-12T05:36:57.477Z,97338.22
2022-11-12T05:39:43.119Z,97338.69
2022-11-12T05:42:28.780Z,97331.19
2022-11-12T05:45:14.535Z,97335.97
2022-11-12T05:48:00.248Z,97333.59
2022-11-12T05:51:11.241Z,97325.75
2022-11-12T05:53:55.867Z,97323.16
2022-11-12T05:56:41.834Z,97319.81
2022-11-12T05:59:27.554Z,97319.59
2022-11-12T06:02:13.411Z,97317.44
2022-11-12T06:04:59.128Z,97311.50
2022-11-12T06:07:45.130Z,97323.97
2022-11-12T06:10:30.822Z,97326.84
2022-11-12T06:13:16.929Z,97324.91
2022-11-12T06:16:02.425Z,97332.25
2022-11-12T06:18:48.096Z,97334.56
2022-11-12T06:21:33.909Z,97331.34
2022-11-12T06:24:19.442Z,97345.41
2022-11-12T06:27:05.032Z,97343.84
2022-11-12T06:29:50.719Z,97334.59
2022-11-12T06:32:36.786Z,97328.47
2022-11-12T06:35:22.664Z,97353.41
2022-11-12T06:38:08.470Z,97351.91
2022-11-12T06:40:54.182Z,97356.38
2022-11-12T06:43:40.780Z,97352.06
2022-11-12T06:46:26.550Z,97361.41
2022-11-12T06:49:12.165Z,97363.84
2022-11-12T06:51:58.012Z,97371.19
2022-11-12T06:54:44.636Z,97367.88
2022-11-12T06:57:30.022Z,97372.09
2022-11-12T07:00:16.536Z,97375.13
2022-11-12T07:03:06.936Z,97374.63
2022-11-12T07:05:52.656Z,97386.78
2022-11-12T07:08:39.250Z,97378.94
2022-11-12T07:11:24.851Z,97375.75
2022-11-12T07:14:10.558Z,97382.94
2022-11-12T07:16:56.379Z,97388.13
2022-11-12T07:19:42.105Z,97390.00
2022-11-12T07:22:27.730Z,97393.38
2022-11-12T07:25:13.363Z,97386.53
2022-11-12T07:27:59.057Z,97384.59
2022-11-12T07:30:44.813Z,97388.91
2022-11-12T07:33:31.896Z,97392.75
2022-11-12T07:36:19.291Z,97385.72
2022-11-12T07:39:04.779Z,97376.53
2022-11-12T07:41:51.534Z,97363.28
2022-11-12T07:44:37.343Z,97374.94
2022-11-12T07:47:22.972Z,97389.69
2022-11-12T07:50:08.991Z,97391.41
2022-11-12T07:52:54.508Z,97382.44
2022-11-12T07:55:40.254Z,97403.44
2022-11-12T07:58:27.585Z,97397.00
2022-11-12T08:01:31.685Z,97391.38
2022-11-12T08:04:17.131Z,97382.81
2022-11-12T08:07:02.871Z,97379.16
2022-11-12T08:09:48.361Z,97383.41
2022-11-12T08:12:34.104Z,97397.31
2022-11-12T08:15:20.012Z,97393.34
2022-11-12T08:18:05.772Z,97394.94
2022-11-12T08:20:51.632Z,97396.72
2022-11-12T08:23:37.609Z,97397.47
2022-11-12T08:26:23.420Z,97396.31
2022-11-12T08:29:09.248Z,97398.38
2022-11-12T08:31:55.008Z,97394.66
2022-11-12T08:34:41.362Z,97401.00
2022-11-12T08:37:27.011Z,97396.72
2022-11-12T08:40:12.999Z,97405.78
2022-11-12T08:43:05.502Z,97403.59
2022-11-12T08:45:51.227Z,97388.38
2022-11-12T08:48:37.026Z,97397.59
2022-11-12T08:51:23.012Z,97398.38
2022-11-12T08:54:08.797Z,97398.88
2022-11-12T08:56:54.625Z,97395.75
2022-11-12T08:59:40.079Z,97402.66
2022-11-12T09:02:25.909Z,97407.22
2022-11-12T09:05:11.723Z,97406.59
2022-11-12T09:08:03.192Z,97407.94
2022-11-12T09:10:50.289Z,97401.00
2022-11-12T09:13:35.968Z,97406.81
2022-11-12T09:16:21.752Z,97412.19
2022-11-12T09:19:07.670Z,97411.81
2022-11-12T09:21:53.270Z,97411.13
2022-11-12T09:24:39.043Z,97409.34
2022-11-12T09:27:27.376Z,97414.22
2022-11-12T09:30:13.014Z,97410.06
2022-11-12T09:32:58.906Z,97411.16
2022-11-12T09:35:45.712Z,97401.78
2022-11-12T09:38:31.703Z,97406.81
2022-11-12T09:41:28.214Z,97405.91
2022-11-12T09:44:18.010Z,97416.94
2022-11-12T09:47:27.507Z,97406.66
2022-11-12T09:50:15.901Z,97414.53
2022-11-12T09:53:22.837Z,97405.06
2022-11-12T09:56:12.824Z,97400.91
2022-11-12T09:58:59.020Z,97400.69
2022-11-12T10:01:56.649Z,97405.25
2022-11-12T10:04:53.530Z,97403.97
2022-11-12T10:08:11.190Z,97407.13
2022-11-12T10:11:13.488Z,97399.53
2022-11-12T10:14:04.861Z,97396.97
2022-11-12T10:17:13.639Z,97391.94
2022-11-12T10:20:18.486Z,97387.50
2022-11-12T10:23:20.950Z,97390.84
2022-11-12T10:26:13.799Z,97389.59
2022-11-12T10:29:21.730Z,97383.78
2022-11-12T10:32:15.253Z,97383.94
2022-11-12T10:35:00.880Z,97377.00
2022-11-12T10:37:55.032Z,97379.19
2022-11-12T10:40:42.016Z,97371.75
2022-11-12T10:43:27.380Z,97366.31
2022-11-12T10:46:19.513Z,97361.19
2022-11-12T10:49:23.258Z,97365.91
2022-11-12T10:52:23.811Z,97377.25
2022-11-12T10:55:22.120Z,97375.69
2022-11-12T10:58:10.651Z,97369.41
2022-11-12T11:01:05.596Z,97371.06
2022-11-12T11:03:57.218Z,97373.31
2022-11-12T11:06:42.909Z,97377.59
2022-11-12T11:09:28.745Z,97377.97
2022-11-12T11:12:34.201Z,97377.25
2022-11-12T11:15:23.322Z,97357.38
2022-11-12T11:18:12.686Z,97369.84
2022-11-12T11:21:08.175Z,97364.88
2022-11-12T11:23:59.752Z,97359.66
2022-11-12T11:27:07.579Z,97352.53
2022-11-12T11:30:12.531Z,97348.16
2022-11-12T11:33:20.557Z,97347.75
2022-11-12T11:36:27.480Z,97344.72
2022-11-12T11:39:29.993Z,97343.47
2022-11-12T11:42:52.627Z,97348.25
2022-11-12T11:45:50.596Z,97346.13
2022-11-12T11:48:57.872Z,97339.16
2022-11-12T11:51:59.544Z,97325.94
2022-11-12T11:54:45.341Z,97327.44
2022-11-12T11:58:00.313Z,97325.00
2022-11-12T12:01:24.672Z,97319.81
2022-11-12T12:04:29.321Z,97323.19
2022-11-12T12:07:20.758Z,97323.22
2022-11-12T12:10:12.065Z,97316.72
2022-11-12T12:13:22.610Z,97317.59
2022-11-12T12:16:29.697Z,97317.19
2022-11-12T12:19:24.322Z,97318.78
2022-11-12T12:22:15.476Z,97316.22
2022-11-12T12:25:13.003Z,97303.63
2022-11-12T12:28:28.194Z,97301.22
2022-11-12T12:31:20.770Z,97293.16
2022-11-12T12:34:17.772Z,97292.94
2022-11-12T12:37:21.068Z,97288.53
2022-11-12T12:40:22.569Z,97285.13
2022-11-12T12:43:18.089Z,97294.56
2022-11-12T12:46:05.887Z,97284.19
2022-11-12T12:48:54.107Z,97280.25
2022-11-12T12:51:39.905Z,97276.19
2022-11-12T12:54:34.782Z,97278.72
2022-11-12T12:57:36.353Z,97272.53
2022-11-12T13:00:34.515Z,97277.84
2022-11-12T13:03:44.947Z,97273.66
2022-11-12T13:06:51.268Z,97285.16
2022-11-12T13:09:37.213Z,97278.88
2022-11-12T13:13:01.519Z,97275.31
2022-11-12T13:15:53.750Z,97271.50
2022-11-12T13:18:42.152Z,97275.25
2022-11-12T13:21:28.378Z,97272.19
2022-11-12T13:24:14.143Z,97273.97
2022-11-12T13:27:00.304Z,97277.34
2022-11-12T13:29:47.604Z,97273.09
2022-11-12T13:32:48.551Z,97268.78
2022-11-12T13:35:36.313Z,97265.06
2022-11-12T13:38:21.891Z,97271.16
2022-11-12T13:41:10.741Z,97265.13
2022-11-12T13:43:57.042Z,97271.34
2022-11-12T13:46:44.228Z,97267.19
2022-11-12T13:49:30.271Z,97265.94
2022-11-12T13:52:18.653Z,97272.34
2022-11-12T13:55:10.186Z,97269.16
2022-11-12T13:57:56.517Z,97271.47
2022-11-12T14:00:51.415Z,97267.28
2022-11-12T14:03:52.716Z,97265.25
2022-11-12T14:06:42.569Z,97263.38
2022-11-12T14:10:10.747Z,97264.75
2022-11-12T14:13:53.306Z,97268.03
2022-11-12T14:16:46.536Z,97259.16
2022-11-12T14:19:49.022Z,97255.66
2022-11-12T14:22:43.236Z,97252.91
2022-11-12T14:25:29.059Z,97250.31
2022-11-12T14:28:35.330Z,97251.44
2022-11-12T14:31:25.076Z,97242.59
2022-11-12T14:34:20.366Z,97241.22
2022-11-12T14:37:06.098Z,97234.63
2022-11-12T14:39:51.856Z,97234.44
2022-11-12T14:42:37.510Z,97230.06
2022-11-12T14:45:23.893Z,97230.16
2022-11-12T14:48:09.847Z,97232.94
2022-11-12T14:51:05.285Z,97215.63
2022-11-12T14:54:06.453Z,97216.50
2022-11-12T14:56:52.569Z,97209.09
2022-11-12T14:59:38.173Z,97215.13
2022-11-12T15:02:47.240Z,97209.91
2022-11-12T15:06:12.842Z,97207.25
2022-11-12T15:08:59.424Z,97196.41
2022-11-12T15:11:47.508Z,97202.94
2022-11-12T15:14:34.067Z,97197.53
2022-11-12T15:17:30.763Z,97205.44
2022-11-12T15:20:19.024Z,97201.91
2022-11-12T15:23:05.114Z,97191.22
2022-11-12T15:26:01.243Z,97189.16
2022-11-12T15:29:12.453Z,97181.16
2022-11-12T15:32:04.854Z,97186.78
2022-11-12T15:34:52.150Z,97185.81
2022-11-12T15:37:42.567Z,97176.69
2022-11-12T15:40:28.751Z,97171.75
2022-11-12T15:43:27.395Z,97180.81
2022-11-12T15:46:16.443Z,97163.41
2022-11-12T15:49:02.191Z,97173.59
2022-11-12T15:51:48.092Z,97171.25
2022-11-12T15:54:36.870Z,97167.44
2022-11-12T15:57:30.435Z,97156.63
2022-11-12T16:00:17.836Z,97169.91
2022-11-12T16:03:12.677Z,97156.47
2022-11-12T16:05:59.120Z,97152.94
2022-11-12T16:08:47.130Z,97163.75
2022-11-12T16:11:35.776Z,97162.69
2022-11-12T16:14:24.767Z,97160.38
2022-11-12T16:17:17.446Z,97169.25
2022-11-12T16:20:05.943Z,97165.06
2022-11-12T16:22:52.102Z,97161.59
2022-11-12T16:25:40.926Z,97155.69
2022-11-12T16:28:26.579Z,97163.22
2022-11-12T16:31:12.319Z,97154.53
2022-11-12T16:33:58.264Z,97154.91
2022-11-12T16:36:44.112Z,97154.44
2022-11-12T16:39:31.002Z,97129.31
2022-11-12T16:42:16.806Z,97154.72
2022-11-12T16:45:02.751Z,97153.84
2022-11-12T16:47:53.929Z,97151.94
2022-11-12T16:50:39.448Z,97156.53
2022-11-12T16:53:25.474Z,97160.84
2022-11-12T16:56:20.269Z,97147.84
2022-11-12T16:59:05.762Z,97140.41
2022-11-12T17:01:51.548Z,97150.50
2022-11-12T17:04:37.389Z,97153.78
2022-11-12T17:07:24.097Z,97145.66
2022-11-12T17:10:10.133Z,97144.69
2022-11-12T17:12:55.704Z,97150.88
2022-11-12T17:15:41.405Z,97142.22
2022-11-12T17:18:48.034Z,97141.16
2022-11-12T17:21:33.870Z,97144.09
2022-11-12T17:24:19.644Z,97143.75
2022-11-12T17:27:05.458Z,97132.88
2022-11-12T17:29:51.240Z,97142.03
2022-11-12T17:32:36.877Z,97140.00
2022-11-12T17:35:22.676Z,97128.53
2022-11-12T17:38:08.388Z,97134.59
2022-11-12T17:40:58.587Z,97137.13
2022-11-12T17:43:43.992Z,97138.69
2022-11-12T17:46:30.479Z,97130.13
2022-11-12T17:49:16.215Z,97123.31
2022-11-12T17:52:01.775Z,97132.13
2022-11-12T17:54:47.562Z,97114.53
2022-11-12T17:57:33.250Z,97121.59
2022-11-12T18:00:19.103Z,97123.22
2022-11-12T18:03:04.997Z,97128.94
2022-11-12T18:05:59.145Z,97111.84
2022-11-12T18:08:45.356Z,97112.75
2022-11-12T18:11:37.461Z,97113.66
2022-11-12T18:14:26.012Z,97114.34
2022-11-12T18:17:14.369Z,97115.16
2022-11-12T18:20:00.049Z,97123.72
2022-11-12T18:22:45.926Z,97120.28
2022-11-12T18:25:31.588Z,97128.72
2022-11-12T18:28:17.354Z,97118.25
2022-11-12T18:31:05.335Z,97123.47
2022-11-12T18:33:51.937Z,97128.84
2022-11-12T18:36:37.305Z,97114.16
2022-11-12T18:39:23.173Z,97112.53
2022-11-12T18:42:08.864Z,97102.28
2022-11-12T18:44:54.806Z,97102.06
2022-11-12T18:47:40.627Z,97108.44
2022-11-12T18:50:26.294Z,97105.59
2022-11-12T18:53:12.060Z,97105.69
2022-11-12T18:56:06.818Z,97108.69
2022-11-12T18:58:52.407Z,97109.25
2022-11-12T19:01:38.192Z,97100.91
2022-11-12T19:04:24.017Z,97097.63
2022-11-12T19:07:09.705Z,97096.50
2022-11-12T19:09:55.456Z,97085.06
2022-11-12T19:12:41.357Z,97096.56
2022-11-12T19:15:27.321Z,97089.97
2022-11-12T19:18:14.110Z,97090.53
2022-11-12T19:21:09.032Z,97088.84
2022-11-12T19:23:55.589Z,97094.31
2022-11-12T19:26:41.315Z,97078.84
2022-11-12T19:29:27.294Z,97083.59
2022-11-12T19:32:13.454Z,97081.34
2022-11-12T19:34:58.775Z,97081.34
2022-11-12T19:37:44.275Z,97083.00
2022-11-12T19:40:30.002Z,97083.16
2022-11-12T19:43:15.904Z,97075.41
2022-11-12T19:46:02.179Z,97076.28
2022-11-12T19:48:47.633Z,97070.41
2022-11-12T19:51:33.303Z,97072.22
2022-11-12T19:54:18.999Z,97065.63
2022-11-12T19:57:05.478Z,97063.09
2022-11-12T19:59:51.269Z,97063.31
2022-11-12T20:02:37.001Z,97058.91
2022-11-12T20:05:22.699Z,97046.91
2022-11-12T20:08:08.777Z,97054.22
2022-11-12T20:10:55.380Z,97056.13
2022-11-12T20:13:41.111Z,97054.69
2022-11-12T20:16:26.866Z,97052.56
2022-11-12T20:19:12.652Z,97045.88
2022-11-12T20:21:58.404Z,97044.75
2022-11-12T20:24:44.300Z,97038.03
2022-11-12T20:27:30.012Z,97028.03
2022-11-12T20:30:15.894Z,97028.94
2022-11-12T20:33:01.570Z,97019.38
2022-11-12T20:35:47.354Z,97030.28
2022-11-12T20:38:36.417Z,97026.56
2022-11-12T20:41:23.906Z,97027.19
2022-11-12T20:44:09.808Z,97025.88
2022-11-12T20:46:55.612Z,97017.56
2022-11-12T20:49:41.370Z,97027.25
2022-11-12T20:52:27.181Z,97024.16
2022-11-12T20:55:13.003Z,97026.16
2022-11-12T20:58:00.183Z,97026.09
2022-11-12T21:00:45.784Z,97019.44
2022-11-12T21:03:32.293Z,97017.53
2022-11-12T21:06:19.780Z,97015.41
2022-11-12T21:09:05.432Z,97019.81
2022-11-12T21:11:51.277Z,97023.56
2022-11-12T21:14:37.133Z,97006.13
2022-11-12T21:17:22.832Z,97012.28
2022-11-12T21:20:09.001Z,97012.47
2022-11-12T21:22:54.700Z,97008.44
2022-11-12T21:25:40.693Z,97009.09
2022-11-12T21:28:26.599Z,97009.06
2022-11-12T21:31:17.973Z,97014.69
2022-11-12T21:34:04.472Z,97002.72
2022-11-12T21:36:50.146Z,97011.84
2022-11-12T21:39:36.239Z,97015.34
2022-11-12T21:42:21.584Z,97010.50
2022-11-12T21:45:07.792Z,97007.75
2022-11-12T21:47:53.532Z,97004.91
2022-11-12T21:50:39.836Z,97015.06
2022-11-12T21:53:25.602Z,97000.25
2022-11-12T21:56:16.767Z,96999.91
2022-11-12T21:59:03.947Z,97004.31
2022-11-12T22:01:49.610Z,96994.56
2022-11-12T22:04:35.383Z,97000.47
2022-11-12T22:07:21.078Z,96996.72
2022-11-12T22:10:07.147Z,96997.16
2022-11-12T22:13:24.871Z,96993.41
2022-11-12T22:16:03.369Z,96994.78
2022-11-12T22:18:53.149Z,96992.94
2022-11-12T22:21:40.187Z,96990.00
2022-11-12T22:24:25.798Z,96992.16
2022-11-12T22:27:11.586Z,96987.94
2022-11-12T22:29:57.137Z,96995.19
2022-11-12T22:32:42.883Z,96983.94
2022-11-12T22:35:28.659Z,96986.56
2022-11-12T22:38:14.378Z,96976.63
2022-11-12T22:41:07.745Z,96978.13
2022-11-12T22:43:55.900Z,96973.69
2022-11-12T22:46:41.349Z,96974.50
2022-11-12T22:49:26.850Z,96967.69
2022-11-12T22:52:12.706Z,96963.13
2022-11-12T22:54:58.306Z,96969.81
2022-11-12T22:57:43.992Z,96958.91
2022-11-12T23:00:31.749Z,96964.91
2022-11-12T23:03:17.343Z,96968.41
2022-11-12T23:06:05.846Z,96963.38
2022-11-12T23:08:53.541Z,96958.22
2022-11-12T23:11:38.962Z,96956.19
2022-11-12T23:14:24.889Z,96943.00
2022-11-12T23:17:10.352Z,96941.97
2022-11-12T23:19:56.050Z,96943.22
2022-11-12T23:22:41.870Z,96933.22
2022-11-12T23:25:28.603Z,96937.66
2022-11-12T23:28:14.357Z,96937.34
2022-11-12T23:31:00.907Z,96929.31
2022-11-12T23:33:48.415Z,96929.91
2022-11-12T23:36:33.757Z,96920.56
2022-11-12T23:39:19.629Z,96921.47
2022-11-12T23:42:05.219Z,96921.25
2022-11-12T23:44:51.127Z,96919.44
2022-11-12T23:47:37.317Z,96907.16
2022-11-12T23:50:22.786Z,96911.41
2022-11-12T23:53:08.636Z,96911.53
2022-11-12T23:55:54.358Z,96915.50
2022-11-12T23:58:40.935Z,96911.84
